Time;durP1;ratioP1;P1;durP2;ratioP2;P2;SDS_P1;SDS_P2;PMS_P1;PMS_P2;Temp;Humidity;BMP_temperature;BMP_pressure;BME280_temperature;BME280_humidity;BME280_pressure;Samples;Min_cycle;Max_cycle;Signal;HPM_P1;HPM_P2
2023/03/29 00:00:14;;;;;;;5.95;4.32;;;5.20;99.90;;;;;;4973720;28;20125;-73
2023/03/29 00:02:41;;;;;;;5.55;3.85;;;5.20;99.90;;;;;;4956814;28;20054;-73
2023/03/29 00:05:08;;;;;;;6.57;3.50;;;5.20;99.90;;;;;;4962532;28;20062;-73
2023/03/29 00:07:34;;;;;;;6.97;3.95;;;5.20;99.90;;;;;;4944464;28;20042;-73
2023/03/29 00:10:03;;;;;;;7.15;3.90;;;5.20;99.90;;;;;;4973527;28;20097;-73
2023/03/29 00:12:29;;;;;;;7.65;4.13;;;5.10;99.90;;;;;;4964459;28;20062;-73
2023/03/29 00:14:55;;;;;;;5.70;3.90;;;5.10;99.90;;;;;;4964184;28;20034;-73
2023/03/29 00:17:21;;;;;;;6.00;3.88;;;5.10;99.90;;;;;;4966183;28;20038;-74
2023/03/29 00:19:46;;;;;;;7.47;4.40;;;5.10;99.90;;;;;;4973403;28;20117;-73
2023/03/29 00:22:13;;;;;;;5.65;4.05;;;5.10;99.90;;;;;;4966619;28;20122;-73
2023/03/29 00:24:39;;;;;;;5.30;4.18;;;5.10;99.90;;;;;;4946609;28;20039;-73
2023/03/29 00:27:06;;;;;;;6.30;4.10;;;5.10;99.90;;;;;;4952048;28;20043;-73
2023/03/29 00:29:32;;;;;;;5.32;4.03;;;5.10;99.90;;;;;;4960851;28;20043;-73
2023/03/29 00:31:58;;;;;;;6.80;5.05;;;5.10;99.90;;;;;;4968320;28;20402;-73
2023/03/29 00:34:25;;;;;;;6.03;4.32;;;5.10;99.90;;;;;;4961779;28;20462;-73
2023/03/29 00:36:51;;;;;;;5.63;4.68;;;5.00;99.90;;;;;;4932031;29;20035;-73
2023/03/29 00:39:20;;;;;;;8.00;5.05;;;5.10;99.90;;;;;;4976456;28;20074;-73
2023/03/29 00:41:48;;;;;;;7.32;5.05;;;5.10;99.90;;;;;;4972803;28;20043;-73
2023/03/29 00:44:51;;;;;;;6.32;4.90;;;5.10;99.90;;;;;;4956979;28;20051;-73
2023/03/29 00:47:21;;;;;;;7.20;4.80;;;5.10;99.90;;;;;;4953017;28;20047;-73
2023/03/29 00:49:48;;;;;;;8.75;5.32;;;5.10;99.90;;;;;;4965275;28;20093;-73
2023/03/29 00:52:17;;;;;;;7.45;5.53;;;5.10;99.90;;;;;;4972628;28;20055;-73
2023/03/29 00:54:45;;;;;;;7.47;5.38;;;5.10;99.90;;;;;;4947943;28;20039;-73
2023/03/29 00:57:12;;;;;;;7.32;5.88;;;5.10;99.90;;;;;;4955968;28;20074;-73
2023/03/29 00:59:40;;;;;;;7.40;5.57;;;5.10;99.90;;;;;;4952909;29;20035;-73
2023/03/29 01:02:07;;;;;;;7.55;5.45;;;5.10;99.90;;;;;;4945479;28;20039;-73
2023/03/29 01:04:44;;;;;;;7.93;5.55;;;5.10;99.90;;;;;;4956279;28;20118;-73
2023/03/29 01:07:20;;;;;;;8.82;5.90;;;5.10;99.90;;;;;;4954801;28;20563;-73
2023/03/29 01:09:52;;;;;;;7.13;5.60;;;5.10;99.90;;;;;;4953548;28;20043;-73
2023/03/29 01:12:23;;;;;;;;;;;5.10;99.90;;;;;;4970566;28;20086;-73
2023/03/29 01:14:51;;;;;;;7.43;5.93;;;5.10;99.90;;;;;;4964364;28;20002;-73
2023/03/29 01:17:21;;;;;;;9.85;6.47;;;5.10;99.90;;;;;;4952119;28;20036;-73
2023/03/29 01:20:25;;;;;;;7.50;6.07;;;5.10;99.90;;;;;;4956194;28;20069;-73
2023/03/29 01:22:57;;;;;;;7.47;5.93;;;5.10;99.90;;;;;;4895799;28;20065;-73
2023/03/29 01:25:43;;;;;;;6.95;5.82;;;5.10;99.90;;;;;;4962031;28;20042;-73
2023/03/29 01:28:16;;;;;;;7.10;5.70;;;5.10;99.90;;;;;;4966124;28;20046;-73
2023/03/29 01:30:53;;;;;;;;;;;5.10;99.90;;;;;;4958603;28;20097;-73
2023/03/29 01:33:41;;;;;;;7.80;6.28;;;5.10;99.90;;;;;;4945061;28;19975;-73
2023/03/29 01:36:26;;;;;;;8.45;6.40;;;5.10;99.90;;;;;;4952981;28;21285;-73
2023/03/29 01:38:57;;;;;;;8.60;6.07;;;5.10;99.90;;;;;;4951613;28;20118;-73
2023/03/29 01:41:34;;;;;;;8.40;6.03;;;5.10;99.90;;;;;;4971579;28;20046;-73
2023/03/29 01:44:12;;;;;;;7.40;5.80;;;5.10;99.90;;;;;;4961948;28;20083;-73
2023/03/29 01:46:45;;;;;;;8.40;6.60;;;5.10;99.90;;;;;;4954895;28;20161;-73
2023/03/29 01:49:18;;;;;;;8.50;6.40;;;5.10;99.90;;;;;;4943436;28;20458;-73
2023/03/29 01:51:52;;;;;;;7.50;6.03;;;5.10;99.90;;;;;;4971793;28;20050;-73
2023/03/29 01:54:22;;;;;;;8.43;6.20;;;5.10;99.90;;;;;;4952879;28;20067;-73
2023/03/29 01:56:50;;;;;;;8.10;6.05;;;5.10;99.90;;;;;;4962248;28;20390;-73
2023/03/29 01:59:21;;;;;;;9.50;6.10;;;5.20;99.90;;;;;;4962050;28;20038;-73
2023/03/29 02:01:50;;;;;;;7.45;6.28;;;5.10;99.90;;;;;;4960200;28;20413;-73
2023/03/29 02:04:30;;;;;;;6.88;5.82;;;5.20;99.90;;;;;;4937622;28;20095;-73
2023/03/29 02:06:59;;;;;;;7.10;6.35;;;5.20;99.90;;;;;;4932957;28;20126;-73
2023/03/29 02:09:27;;;;;;;7.88;5.60;;;5.20;99.90;;;;;;4968827;28;20528;-73
2023/03/29 02:11:58;;;;;;;8.05;6.55;;;5.20;99.90;;;;;;4971429;28;20042;-73
2023/03/29 02:14:25;;;;;;;11.10;6.18;;;5.10;99.90;;;;;;4952745;28;20048;-73
2023/03/29 02:16:50;;;;;;;7.95;6.10;;;5.20;99.90;;;;;;4953069;28;20061;-73
2023/03/29 02:19:17;;;;;;;7.43;5.97;;;5.20;99.90;;;;;;4958483;28;20039;-74
2023/03/29 02:22:02;;;;;;;9.32;5.80;;;5.20;99.90;;;;;;4963448;28;20557;-74
2023/03/29 02:24:31;;;;;;;7.95;5.93;;;5.20;99.90;;;;;;4957446;28;20047;-74
2023/03/29 02:26:57;;;;;;;7.80;6.15;;;5.20;99.90;;;;;;4963446;28;20117;-73
2023/03/29 02:29:23;;;;;;;8.55;6.10;;;5.20;99.90;;;;;;4954966;28;20115;-73
2023/03/29 02:31:57;;;;;;;7.47;6.05;;;5.20;99.90;;;;;;4962593;28;20070;-73
2023/03/29 02:34:29;;;;;;;8.02;6.18;;;5.20;99.90;;;;;;4958893;28;20044;-73
2023/03/29 02:37:00;;;;;;;7.53;6.43;;;5.20;99.90;;;;;;4967158;28;20413;-74
2023/03/29 02:39:31;;;;;;;9.35;7.07;;;5.20;99.90;;;;;;4975496;28;20570;-74
2023/03/29 02:41:57;;;;;;;7.82;6.40;;;5.20;99.90;;;;;;4972704;28;20070;-74
2023/03/29 02:44:32;;;;;;;7.70;6.13;;;5.20;99.90;;;;;;4952760;28;20047;-73
2023/03/29 02:47:15;;;;;;;7.50;6.68;;;5.20;99.90;;;;;;4968849;28;20070;-73
2023/03/29 02:49:41;;;;;;;10.80;6.80;;;5.20;99.90;;;;;;4959184;28;20035;-73
2023/03/29 02:52:22;;;;;;;9.20;7.13;;;5.20;99.90;;;;;;4966758;28;20517;-73
2023/03/29 02:54:51;;;;;;;8.60;6.32;;;5.20;99.90;;;;;;4962360;28;20038;-73
2023/03/29 02:57:16;;;;;;;7.55;6.75;;;5.20;99.90;;;;;;4955674;28;20471;-73
2023/03/29 02:59:43;;;;;;;9.85;7.07;;;5.20;99.90;;;;;;4974890;28;20126;-73
2023/03/29 03:02:10;;;;;;;8.85;6.93;;;5.30;99.90;;;;;;4957449;28;20043;-73
2023/03/29 03:04:36;;;;;;;8.82;7.40;;;5.30;99.90;;;;;;4959768;28;20057;-73
2023/03/29 03:07:04;;;;;;;8.80;7.28;;;5.20;99.90;;;;;;4942553;29;20047;-73
2023/03/29 03:09:29;;;;;;;9.63;7.60;;;5.30;99.90;;;;;;4957724;28;20035;-73
2023/03/29 03:11:55;;;;;;;8.80;7.07;;;5.30;99.90;;;;;;4974799;28;20050;-73
2023/03/29 03:14:21;;;;;;;8.18;7.32;;;5.30;99.90;;;;;;4951604;28;20042;-73
2023/03/29 03:16:47;;;;;;;9.23;7.10;;;5.30;99.90;;;;;;4970094;28;20035;-73
2023/03/29 03:19:14;;;;;;;9.38;7.18;;;5.30;99.90;;;;;;4957008;28;20051;-73
2023/03/29 03:21:39;;;;;;;9.50;7.20;;;5.30;99.90;;;;;;4974369;28;20039;-73
2023/03/29 03:24:06;;;;;;;9.20;7.60;;;5.30;99.90;;;;;;4961216;28;20038;-73
2023/03/29 03:26:32;;;;;;;9.55;7.18;;;5.30;99.90;;;;;;4949416;28;20097;-74
2023/03/29 03:28:58;;;;;;;9.48;7.70;;;5.30;99.90;;;;;;4942550;29;20039;-73
2023/03/29 03:31:24;;;;;;;8.63;6.90;;;5.30;99.90;;;;;;4971348;28;20047;-73
2023/03/29 03:33:49;;;;;;;8.32;7.18;;;5.30;99.90;;;;;;4959070;28;20042;-73
2023/03/29 03:36:15;;;;;;;11.32;8.15;;;5.40;99.90;;;;;;4961080;28;20066;-73
2023/03/29 03:38:41;;;;;;;9.73;7.63;;;5.40;99.90;;;;;;4974289;28;20073;-73
2023/03/29 03:41:07;;;;;;;8.27;7.18;;;5.40;99.90;;;;;;4973642;28;20122;-73
2023/03/29 03:43:33;;;;;;;9.93;7.65;;;5.40;99.90;;;;;;4963152;28;20110;-73
2023/03/29 03:46:00;;;;;;;9.18;7.53;;;5.40;99.90;;;;;;4970356;28;20085;-73
2023/03/29 03:48:25;;;;;;;9.13;7.40;;;5.40;99.90;;;;;;4955997;28;20064;-73
2023/03/29 03:50:57;;;;;;;8.48;7.20;;;5.40;99.90;;;;;;4954623;29;20047;-73
2023/03/29 03:53:24;;;;;;;10.93;7.60;;;5.50;99.90;;;;;;4953530;28;20094;-73
2023/03/29 03:55:56;;;;;;;9.15;7.93;;;5.40;99.90;;;;;;4967195;28;20047;-73
2023/03/29 03:58:22;;;;;;;8.90;7.55;;;5.40;99.90;;;;;;4966189;28;20494;-73
2023/03/29 04:00:51;;;;;;;8.68;7.60;;;5.50;99.90;;;;;;4957732;28;20045;-74
2023/03/29 04:03:17;;;;;;;8.88;7.70;;;5.40;99.90;;;;;;4945240;28;20194;-73
2023/03/29 04:05:44;;;;;;;11.23;7.80;;;5.50;99.90;;;;;;4968131;28;20035;-73
2023/03/29 04:08:11;;;;;;;9.57;7.43;;;5.50;99.90;;;;;;4961699;28;20051;-73
2023/03/29 04:10:37;;;;;;;8.55;7.65;;;5.50;99.90;;;;;;4938342;28;20129;-73
2023/03/29 04:13:05;;;;;;;11.02;8.07;;;5.50;99.90;;;;;;4961902;28;20130;-73
2023/03/29 04:15:32;;;;;;;11.27;7.85;;;5.50;99.90;;;;;;4965930;28;20548;-73
2023/03/29 04:17:59;;;;;;;8.85;7.50;;;5.50;99.90;;;;;;4973836;28;20094;-73
2023/03/29 04:20:25;;;;;;;8.52;7.63;;;5.50;99.90;;;;;;4971613;28;20041;-73
2023/03/29 04:22:52;;;;;;;9.70;7.53;;;5.50;99.90;;;;;;4946290;28;20056;-73
2023/03/29 04:25:17;;;;;;;9.85;7.57;;;5.50;99.90;;;;;;4968620;28;20441;-73
2023/03/29 04:27:44;;;;;;;10.00;7.15;;;5.50;99.90;;;;;;4973326;28;20039;-74
2023/03/29 04:30:10;;;;;;;8.43;7.53;;;5.60;99.90;;;;;;4973520;28;20494;-73
2023/03/29 04:32:36;;;;;;;9.85;8.20;;;5.60;99.90;;;;;;4960859;28;20039;-73
2023/03/29 04:35:03;;;;;;;10.15;7.85;;;5.60;99.90;;;;;;4973539;28;20049;-73
2023/03/29 04:37:30;;;;;;;11.25;8.10;;;5.50;99.90;;;;;;4973198;28;20047;-73
2023/03/29 04:39:56;;;;;;;9.13;7.88;;;5.60;99.90;;;;;;4948971;29;20454;-73
2023/03/29 04:42:22;;;;;;;9.88;8.38;;;5.60;99.90;;;;;;4948680;28;20130;-73
2023/03/29 04:44:47;;;;;;;9.40;7.78;;;5.60;99.90;;;;;;4950249;28;20051;-73
2023/03/29 04:47:13;;;;;;;10.38;7.82;;;5.60;99.90;;;;;;4974182;28;20038;-73
2023/03/29 04:49:39;;;;;;;9.63;8.25;;;5.60;99.90;;;;;;4972973;28;20078;-73
2023/03/29 04:52:05;;;;;;;12.52;8.70;;;5.50;99.90;;;;;;4960328;28;20482;-73
2023/03/29 04:54:31;;;;;;;11.40;9.23;;;5.50;99.90;;;;;;4948134;28;20118;-73
2023/03/29 04:56:56;;;;;;;9.73;8.52;;;5.50;99.90;;;;;;4967667;28;20039;-73
2023/03/29 04:59:22;;;;;;;11.15;9.25;;;5.50;99.90;;;;;;4972796;28;20043;-73
2023/03/29 05:01:47;;;;;;;12.90;10.00;;;5.40;99.90;;;;;;4965542;28;20027;-73
2023/03/29 05:04:13;;;;;;;12.43;9.43;;;5.50;99.90;;;;;;4955984;28;20102;-73
2023/03/29 05:06:40;;;;;;;10.73;9.25;;;5.40;99.90;;;;;;4964555;28;20109;-73
2023/03/29 05:09:07;;;;;;;11.98;9.73;;;5.40;99.90;;;;;;4972595;28;20482;-73
2023/03/29 05:11:33;;;;;;;13.13;10.07;;;5.40;99.90;;;;;;4972277;28;20097;-73
2023/03/29 05:14:01;;;;;;;12.85;10.75;;;5.40;99.90;;;;;;4967918;28;20046;-73
2023/03/29 05:16:28;;;;;;;12.82;9.70;;;5.40;99.90;;;;;;4962463;28;20545;-73
2023/03/29 05:18:55;;;;;;;13.00;10.18;;;5.40;99.90;;;;;;4972624;28;20097;-73
2023/03/29 05:21:21;;;;;;;13.13;9.80;;;5.40;99.90;;;;;;4968460;28;20039;-73
2023/03/29 05:23:47;;;;;;;11.20;9.77;;;5.40;99.90;;;;;;4950328;28;20501;-73
2023/03/29 05:26:14;;;;;;;11.40;10.10;;;5.40;99.90;;;;;;4960724;28;20054;-73
2023/03/29 05:28:40;;;;;;;13.07;10.82;;;5.50;99.90;;;;;;4972301;28;20509;-73
2023/03/29 05:31:06;;;;;;;12.32;10.35;;;5.50;99.90;;;;;;4969049;28;20085;-73
2023/03/29 05:33:33;;;;;;;13.07;11.02;;;5.40;99.90;;;;;;4962165;28;20043;-73
2023/03/29 05:36:05;;;;;;;12.48;11.15;;;5.50;99.90;;;;;;4958246;28;20035;-73
2023/03/29 05:38:34;;;;;;;12.57;10.57;;;5.50;99.90;;;;;;4963140;28;20050;-73
2023/03/29 05:41:00;;;;;;;14.82;11.25;;;5.50;99.90;;;;;;4944048;28;20447;-73
2023/03/29 05:43:26;;;;;;;14.43;10.93;;;5.50;99.90;;;;;;4969533;28;20105;-73
2023/03/29 05:45:53;;;;;;;16.70;11.90;;;5.50;99.90;;;;;;4955777;28;20043;-73
2023/03/29 05:48:21;;;;;;;12.82;11.43;;;5.50;99.90;;;;;;4964935;28;20125;-73
2023/03/29 05:50:48;;;;;;;13.32;11.40;;;5.50;99.90;;;;;;4971796;28;20043;-73
2023/03/29 05:53:15;;;;;;;14.40;11.85;;;5.60;99.90;;;;;;4957280;28;20075;-73
2023/03/29 05:55:41;;;;;;;14.23;11.40;;;5.60;99.90;;;;;;4954778;28;20117;-73
2023/03/29 05:58:07;;;;;;;12.50;11.20;;;5.60;99.90;;;;;;4972146;28;20042;-73
2023/03/29 06:00:35;;;;;;;12.60;11.00;;;5.60;99.90;;;;;;4956393;28;20035;-73
2023/03/29 06:03:01;;;;;;;12.77;11.40;;;5.70;99.90;;;;;;4932633;28;20151;-73
2023/03/29 06:05:27;;;;;;;12.57;11.30;;;5.70;99.90;;;;;;4961670;28;20527;-73
2023/03/29 06:07:53;;;;;;;13.25;11.45;;;5.70;99.90;;;;;;4963711;28;20131;-73
2023/03/29 06:10:19;;;;;;;12.25;10.85;;;5.70;99.90;;;;;;4951227;28;20047;-73
2023/03/29 06:12:48;;;;;;;15.07;11.80;;;5.80;99.90;;;;;;4961394;28;20043;-73
2023/03/29 06:15:14;;;;;;;15.55;12.10;;;5.80;99.90;;;;;;4952147;28;20054;-76
2023/03/29 06:17:40;;;;;;;12.38;10.88;;;5.80;99.90;;;;;;4948764;28;20421;-75
2023/03/29 06:20:09;;;;;;;12.73;11.00;;;5.90;99.90;;;;;;4967943;28;20181;-74
2023/03/29 06:22:39;;;;;;;13.32;11.00;;;5.90;99.90;;;;;;4953970;28;20044;-74
2023/03/29 06:25:06;;;;;;;13.25;11.88;;;6.00;99.90;;;;;;4938179;28;20044;-74
2023/03/29 06:27:32;;;;;;;13.05;11.18;;;6.00;99.90;;;;;;4936591;28;20047;-74
2023/03/29 06:30:01;;;;;;;12.45;10.55;;;6.00;99.90;;;;;;4940269;28;20106;-74
2023/03/29 06:32:27;;;;;;;13.13;11.40;;;6.10;99.90;;;;;;4945850;28;20130;-74
2023/03/29 06:34:53;;;;;;;12.15;10.60;;;6.10;99.90;;;;;;4956860;28;20166;-74
2023/03/29 06:37:20;;;;;;;12.57;11.27;;;6.20;99.90;;;;;;4952133;28;20426;-74
2023/03/29 06:39:51;;;;;;;12.75;10.88;;;6.20;99.90;;;;;;4963908;28;20080;-74
2023/03/29 06:42:20;;;;;;;14.15;11.07;;;6.20;99.90;;;;;;4940737;28;20387;-75
2023/03/29 06:44:46;;;;;;;11.63;10.45;;;6.20;99.90;;;;;;4964368;28;20039;-74
2023/03/29 06:47:13;;;;;;;11.65;10.45;;;6.30;99.90;;;;;;4971331;28;20413;-74
2023/03/29 06:49:39;;;;;;;12.07;10.60;;;6.30;99.90;;;;;;4971551;28;20038;-74
2023/03/29 06:52:05;;;;;;;14.98;11.07;;;6.30;99.90;;;;;;4947623;28;20086;-74
2023/03/29 06:54:32;;;;;;;10.65;9.50;;;6.40;99.90;;;;;;4950388;28;20109;-74
2023/03/29 06:56:58;;;;;;;10.93;9.48;;;6.40;99.90;;;;;;4971167;28;20042;-74
2023/03/29 06:59:24;;;;;;;12.75;10.20;;;6.40;99.90;;;;;;4946029;28;20072;-75
2023/03/29 07:01:52;;;;;;;11.32;10.13;;;6.50;99.90;;;;;;4948954;28;20117;-74
2023/03/29 07:04:18;;;;;;;12.43;10.00;;;6.50;99.90;;;;;;4954960;28;20103;-74
2023/03/29 07:06:47;;;;;;;13.10;9.80;;;6.50;99.90;;;;;;4966575;28;20129;-74
2023/03/29 07:09:15;;;;;;;9.95;8.95;;;6.50;99.90;;;;;;4971368;28;20051;-74
2023/03/29 07:11:41;;;;;;;11.50;9.18;;;6.60;99.90;;;;;;4971484;28;20491;-74
2023/03/29 07:14:07;;;;;;;11.63;9.85;;;6.70;99.90;;;;;;4971304;28;20051;-74
2023/03/29 07:16:36;;;;;;;10.18;9.15;;;6.70;99.90;;;;;;4972801;28;20101;-74
2023/03/29 07:19:02;;;;;;;13.25;9.48;;;6.80;99.90;;;;;;4961202;28;20047;-74
2023/03/29 07:21:29;;;;;;;11.68;8.88;;;6.80;99.90;;;;;;4957853;28;20044;-74
2023/03/29 07:23:57;;;;;;;10.98;8.30;;;6.80;99.90;;;;;;4974417;28;20050;-75
2023/03/29 07:26:23;;;;;;;11.75;8.65;;;6.90;99.90;;;;;;4974760;28;20371;-75
2023/03/29 07:28:49;;;;;;;10.00;8.80;;;6.90;99.90;;;;;;4949031;29;20036;-75
2023/03/29 07:31:16;;;;;;;11.10;8.25;;;7.00;99.90;;;;;;4968546;28;20058;-74
2023/03/29 07:33:42;;;;;;;9.93;8.57;;;7.00;99.90;;;;;;4960249;28;20051;-74
2023/03/29 07:36:08;;;;;;;12.07;8.25;;;7.00;99.90;;;;;;4936032;29;20135;-74
2023/03/29 07:38:35;;;;;;;11.50;8.48;;;7.10;99.90;;;;;;4935932;29;20035;-75
2023/03/29 07:41:03;;;;;;;11.45;8.13;;;7.10;99.90;;;;;;4938890;28;20044;-75
2023/03/29 07:43:29;;;;;;;10.20;8.52;;;7.20;99.90;;;;;;4939901;28;20042;-75
2023/03/29 07:45:54;;;;;;;9.40;8.18;;;7.20;99.90;;;;;;4952609;28;20035;-75
2023/03/29 07:48:21;;;;;;;8.57;7.68;;;7.20;99.90;;;;;;4941205;28;20050;-74
2023/03/29 07:50:46;;;;;;;8.70;7.80;;;7.30;99.90;;;;;;4974141;28;20049;-74
2023/03/29 07:53:12;;;;;;;9.98;8.50;;;7.30;99.90;;;;;;4973836;28;20413;-75
2023/03/29 07:55:45;;;;;;;10.75;8.18;;;7.40;99.90;;;;;;4967888;28;20038;-74
2023/03/29 07:58:13;;;;;;;9.23;7.97;;;7.50;99.90;;;;;;4959558;28;20070;-75
2023/03/29 08:00:39;;;;;;;9.13;7.35;;;7.50;99.90;;;;;;4973992;28;20433;-75
2023/03/29 08:03:04;;;;;;;9.05;7.70;;;7.60;99.90;;;;;;4960311;28;20047;-73
2023/03/29 08:05:30;;;;;;;8.38;7.32;;;7.70;99.90;;;;;;4947667;28;20509;-73
2023/03/29 08:07:56;;;;;;;9.07;7.38;;;7.70;99.90;;;;;;4971911;28;20046;-74
2023/03/29 08:10:21;;;;;;;11.65;7.82;;;7.80;99.90;;;;;;4958521;28;20047;-74
2023/03/29 08:12:48;;;;;;;9.38;7.82;;;7.80;99.90;;;;;;4953951;29;20047;-74
2023/03/29 08:15:15;;;;;;;8.48;6.97;;;7.90;99.90;;;;;;4960928;28;20039;-75
2023/03/29 08:17:41;;;;;;;8.95;7.15;;;8.00;99.90;;;;;;4966307;28;20101;-74
2023/03/29 08:20:09;;;;;;;9.25;7.53;;;8.10;99.90;;;;;;4950156;28;20039;-76
2023/03/29 08:22:36;;;;;;;9.98;7.25;;;8.10;99.90;;;;;;4950265;28;20039;-75
2023/03/29 08:25:03;;;;;;;9.77;7.35;;;8.20;99.90;;;;;;4942914;28;20057;-75
2023/03/29 08:27:29;;;;;;;7.68;6.90;;;8.20;99.90;;;;;;4946044;28;20506;-74
2023/03/29 08:29:54;;;;;;;8.63;7.20;;;8.20;99.90;;;;;;4940414;28;20039;-75
2023/03/29 08:32:20;;;;;;;9.80;7.38;;;8.20;99.90;;;;;;4953803;28;20035;-75
2023/03/29 08:34:46;;;;;;;9.98;6.88;;;8.30;99.90;;;;;;4952146;28;20063;-75
2023/03/29 08:37:12;;;;;;;7.90;6.97;;;8.40;99.90;;;;;;4955146;28;20410;-75
2023/03/29 08:39:38;;;;;;;8.73;7.20;;;8.40;99.90;;;;;;4960121;28;20053;-76
2023/03/29 08:42:09;;;;;;;11.27;7.30;;;8.40;99.90;;;;;;4973075;28;20043;-75
2023/03/29 08:44:58;;;;;;;10.55;7.35;;;8.40;99.90;;;;;;4961544;28;20054;-73
2023/03/29 08:47:33;;;;;;;11.88;6.90;;;8.50;99.90;;;;;;4973013;28;20453;-73
2023/03/29 08:49:59;;;;;;;9.13;6.35;;;8.60;99.90;;;;;;4945048;28;20090;-73
2023/03/29 08:52:37;;;;;;;9.15;6.40;;;8.60;99.90;;;;;;4939458;28;20043;-73
2023/03/29 08:55:38;;;;;;;9.40;7.18;;;8.70;99.90;;;;;;4965195;28;20038;-74
2023/03/29 08:58:10;;;;;;;8.15;6.80;;;8.70;99.90;;;;;;4921386;28;20498;-74
2023/03/29 09:00:41;;;;;;;9.20;7.15;;;8.70;99.90;;;;;;4948725;28;20417;-74
2023/03/29 09:03:24;;;;;;;9.60;7.93;;;8.80;99.90;;;;;;4936736;28;20143;-73
2023/03/29 09:06:07;;;;;;;7.45;6.57;;;8.80;99.90;;;;;;4942537;28;20102;-73
2023/03/29 09:08:37;;;;;;;;;;;8.90;99.90;;;;;;4958939;28;20284;-73
2023/03/29 09:11:22;;;;;;;10.52;7.18;;;8.90;99.90;;;;;;4949703;29;20251;-73
2023/03/29 09:14:25;;;;;;;8.52;7.07;;;9.00;99.90;;;;;;4942213;28;20039;-73
2023/03/29 09:17:17;;;;;;;10.95;6.97;;;9.10;99.90;;;;;;4944017;28;20042;-74
2023/03/29 09:20:06;;;;;;;8.70;6.80;;;9.20;99.90;;;;;;4945954;28;20046;-74
2023/03/29 09:23:03;;;;;;;11.02;7.22;;;9.40;99.90;;;;;;4955317;28;20042;-74
2023/03/29 09:25:52;;;;;;;9.05;7.47;;;9.50;99.90;;;;;;4952099;28;20079;-74
2023/03/29 09:28:40;;;;;;;9.32;7.00;;;9.60;99.90;;;;;;4957579;28;20047;-74
2023/03/29 09:31:29;;;;;;;10.80;7.28;;;9.70;99.90;;;;;;4917932;29;21118;-75
2023/03/29 09:34:01;;;;;;;9.00;6.95;;;9.80;99.90;;;;;;4941916;28;20509;-75
2023/03/29 09:36:54;;;;;;;8.37;7.17;;;9.90;99.90;;;;;;4969759;28;20042;-75
2023/03/29 09:39:21;;;;;;;9.68;8.18;;;10.10;99.90;;;;;;4953759;28;20381;-75
2023/03/29 09:41:55;;;;;;;9.57;7.80;;;10.10;99.90;;;;;;4965663;28;20051;-75
2023/03/29 09:44:30;;;;;;;12.57;8.05;;;10.20;99.90;;;;;;4955077;28;20048;-75
2023/03/29 09:47:08;;;;;;;11.60;8.05;;;10.20;99.90;;;;;;4946781;28;20090;-75
2023/03/29 09:49:39;;;;;;;11.02;8.13;;;10.30;99.90;;;;;;4949165;28;20042;-75
2023/03/29 09:52:11;;;;;;;14.75;9.05;;;10.40;99.90;;;;;;4948811;28;20051;-75
2023/03/29 09:54:36;;;;;;;10.18;8.55;;;10.40;99.90;;;;;;4958559;28;20482;-75
2023/03/29 09:57:02;;;;;;;10.30;8.60;;;10.40;99.90;;;;;;4948079;28;20063;-75
2023/03/29 09:59:28;;;;;;;11.10;8.60;;;10.40;99.90;;;;;;4942701;28;20091;-75
2023/03/29 10:02:08;;;;;;;12.68;9.43;;;10.50;99.90;;;;;;4962612;28;20046;-75
2023/03/29 10:04:34;;;;;;;11.18;7.90;;;10.50;99.90;;;;;;4964754;28;20034;-75
2023/03/29 10:07:00;;;;;;;10.23;8.25;;;10.60;99.90;;;;;;4954521;28;20038;-73
2023/03/29 10:09:28;;;;;;;11.45;8.30;;;10.70;99.90;;;;;;4957848;28;20050;-74
2023/03/29 10:11:57;;;;;;;10.90;7.88;;;10.90;99.90;;;;;;4961221;28;20039;-74
2023/03/29 10:14:37;;;;;;;10.18;8.07;;;11.00;99.90;;;;;;4948414;28;20039;-73
2023/03/29 10:17:10;;;;;;;11.05;8.23;;;11.20;99.90;;;;;;4963092;28;20034;-73
2023/03/29 10:19:35;;;;;;;;;;;11.40;99.90;;;;;;4967213;28;20062;-74
2023/03/29 10:22:15;;;;;;;9.23;8.05;;;11.80;99.90;;;;;;4969479;28;19966;-74
2023/03/29 10:24:48;;;;;;;8.52;7.03;;;12.10;99.90;;;;;;4933002;29;20043;-74
2023/03/29 10:27:16;;;;;;;9.70;7.60;;;12.40;99.90;;;;;;4962481;28;20043;-74
2023/03/29 10:29:42;;;;;;;9.43;7.28;;;12.70;99.90;;;;;;4948096;28;20043;-73
2023/03/29 10:32:32;;;;;;;8.48;7.35;;;13.20;99.90;;;;;;4943425;28;20126;-73
2023/03/29 10:35:29;;;;;;;7.55;6.50;;;13.50;99.90;;;;;;4937947;29;20083;-73
2023/03/29 10:37:58;;;;;;;7.93;6.57;;;13.60;99.90;;;;;;4954148;28;20078;-73
2023/03/29 10:40:32;;;;;;;7.60;6.35;;;13.60;99.90;;;;;;4952215;29;20490;-73
2023/03/29 10:43:00;;;;;;;8.32;6.60;;;13.50;99.90;;;;;;4947782;28;20039;-73
2023/03/29 10:45:30;;;;;;;8.45;6.60;;;13.50;99.90;;;;;;4957996;28;20079;-73
2023/03/29 10:47:57;;;;;;;9.07;6.45;;;13.60;99.90;;;;;;4963285;28;20038;-73
2023/03/29 10:50:23;;;;;;;8.32;6.30;;;13.70;99.90;;;;;;4966576;28;20042;-73
2023/03/29 10:52:49;;;;;;;7.85;6.45;;;13.70;99.90;;;;;;4967904;28;20043;-73
2023/03/29 10:55:15;;;;;;;8.70;6.57;;;13.80;99.90;;;;;;4964416;28;20122;-73
2023/03/29 10:58:00;;;;;;;7.38;6.50;;;13.90;99.90;;;;;;4963890;28;20306;-74
2023/03/29 11:00:53;;;;;;;9.45;6.95;;;13.90;99.90;;;;;;4954515;28;20087;-72
2023/03/29 11:03:57;;;;;;;8.23;6.82;;;14.10;99.90;;;;;;4952717;28;20150;-72
2023/03/29 11:06:44;;;;;;;7.72;6.55;;;14.40;99.90;;;;;;4955161;28;20054;-72
2023/03/29 11:09:20;;;;;;;8.50;6.32;;;14.60;99.90;;;;;;4967379;28;20509;-72
2023/03/29 11:11:55;;;;;;;9.40;6.78;;;14.90;99.90;;;;;;4954934;28;20062;-73
2023/03/29 11:14:34;;;;;;;8.88;6.72;;;15.00;99.90;;;;;;4962600;28;20047;-73
2023/03/29 11:17:32;;;;;;;9.13;6.60;;;15.00;99.90;;;;;;4974425;28;20043;-73
2023/03/29 11:20:23;;;;;;;9.32;6.68;;;14.90;99.90;;;;;;4951475;28;20738;-73
2023/03/29 11:23:03;;;;;;;7.30;6.07;;;14.70;99.90;;;;;;4952195;28;20058;-72
2023/03/29 11:26:05;;;;;;;9.77;7.03;;;14.60;99.90;;;;;;4965107;28;20069;-72
2023/03/29 11:29:06;;;;;;;7.30;6.35;;;14.60;99.90;;;;;;4973274;28;20128;-72
2023/03/29 11:32:02;;;;;;;9.02;6.57;;;14.50;99.90;;;;;;4973204;28;20047;-72
2023/03/29 11:35:08;;;;;;;8.95;7.22;;;14.40;99.90;;;;;;4956762;28;20047;-72
2023/03/29 11:37:49;;;;;;;8.07;6.20;;;14.40;99.90;;;;;;4956712;28;20496;-72
2023/03/29 11:40:34;;;;;;;8.60;6.65;;;14.30;99.90;;;;;;4974188;28;20119;-72
2023/03/29 11:43:04;;;;;;;7.85;6.85;;;14.30;99.90;;;;;;4974054;28;20042;-72
2023/03/29 11:45:54;;;;;;;7.82;6.32;;;14.10;99.90;;;;;;4960576;28;20449;-73
2023/03/29 11:48:46;;;;;;;7.90;6.90;;;14.10;99.90;;;;;;4961118;28;20169;-73
2023/03/29 11:51:24;;;;;;;10.80;7.07;;;14.10;99.90;;;;;;4947486;28;20043;-72
2023/03/29 11:54:16;;;;;;;9.05;7.20;;;14.10;99.90;;;;;;4956346;28;20325;-72
2023/03/29 11:56:57;;;;;;;8.38;6.88;;;14.00;99.90;;;;;;4957267;28;20049;-72
2023/03/29 11:59:36;;;;;;;9.45;7.55;;;13.90;99.90;;;;;;4948862;28;20039;-72
2023/03/29 12:02:20;;;;;;;9.27;7.22;;;13.90;99.90;;;;;;4946986;28;20123;-72
2023/03/29 12:04:50;;;;;;;9.95;7.68;;;14.00;99.90;;;;;;4958863;28;20039;-72
2023/03/29 12:07:31;;;;;;;10.45;7.75;;;14.10;99.90;;;;;;4968425;28;20055;-72
2023/03/29 12:10:22;;;;;;;9.73;8.27;;;14.20;99.90;;;;;;4949050;28;20407;-72
2023/03/29 12:12:59;;;;;;;10.50;8.18;;;14.30;99.90;;;;;;4947278;28;20409;-72
2023/03/29 12:15:30;;;;;;;9.50;7.57;;;14.40;99.90;;;;;;4955848;28;20047;-72
2023/03/29 12:18:18;;;;;;;10.20;8.43;;;14.60;99.90;;;;;;4954664;29;20393;-72
2023/03/29 12:20:50;;;;;;;11.07;8.07;;;14.50;99.90;;;;;;4953327;28;20042;-72
2023/03/29 12:23:16;;;;;;;11.38;8.15;;;14.70;99.90;;;;;;4958264;28;20384;-73
2023/03/29 12:26:01;;;;;;;9.02;7.82;;;14.90;99.90;;;;;;4945616;29;20056;-73
2023/03/29 12:29:06;;;;;;;10.30;7.93;;;15.10;99.90;;;;;;4962261;28;20058;-73
2023/03/29 12:32:08;;;;;;;10.20;8.07;;;15.20;99.90;;;;;;4959164;28;20078;-73
2023/03/29 12:34:40;;;;;;;8.98;7.75;;;15.20;99.90;;;;;;4958025;28;20046;-74
2023/03/29 12:37:30;;;;;;;9.82;8.10;;;15.10;99.90;;;;;;4938454;28;20071;-74
2023/03/29 12:40:26;;;;;;;10.40;8.07;;;15.10;99.90;;;;;;4935014;29;20091;-74
2023/03/29 12:42:56;;;;;;;11.63;7.82;;;15.20;99.90;;;;;;4944487;28;20048;-73
2023/03/29 12:45:36;;;;;;;9.32;8.35;;;15.20;99.90;;;;;;4951829;28;20070;-73
2023/03/29 12:48:02;;;;;;;9.55;7.53;;;15.30;99.90;;;;;;4952915;28;20060;-74
2023/03/29 12:50:30;;;;;;;9.77;7.85;;;15.30;99.90;;;;;;4959032;28;20032;-74
2023/03/29 12:53:20;;;;;;;10.65;8.57;;;15.30;99.90;;;;;;4962016;28;20051;-73
2023/03/29 12:55:54;;;;;;;11.23;8.50;;;15.30;99.90;;;;;;4946182;28;20487;-74
2023/03/29 12:58:25;;;;;;;9.95;8.23;;;15.40;99.90;;;;;;4962451;28;20039;-74
2023/03/29 13:01:23;;;;;;;11.70;7.90;;;15.60;99.90;;;;;;4948791;28;20508;-74
2023/03/29 13:03:54;;;;;;;9.18;8.15;;;15.60;99.90;;;;;;4961574;28;20110;-74
2023/03/29 13:06:30;;;;;;;10.35;8.70;;;15.60;99.90;;;;;;4969241;28;20047;-74
2023/03/29 13:09:03;;;;;;;8.55;7.40;;;15.60;99.90;;;;;;4958199;28;20154;-74
2023/03/29 13:11:38;;;;;;;11.10;8.95;;;15.40;99.90;;;;;;4944308;28;20099;-74
2023/03/29 13:14:13;;;;;;;9.88;8.40;;;15.30;99.90;;;;;;4945780;28;20043;-74